Time;durP1;ratioP1;P1;durP2;ratioP2;P2;SDS_P1;SDS_P2;PMS_P1;PMS_P2;Temp;Humidity;BMP_temperature;BMP_pressure;BME280_temperature;BME280_humidity;BME280_pressure;Samples;Min_cycle;Max_cycle;Signal;HPM_P1;HPM_P2
2023/12/30 00:01:55;;;;;;;14.07;12.97;;;;;;;3.89;91.86;93061.38;5068446;28;20285;-72
2023/12/30 00:04:20;;;;;;;13.73;12.70;;;;;;;3.85;91.45;93052.53;5071382;28;20204;-72
2023/12/30 00:06:46;;;;;;;16.20;14.43;;;;;;;3.98;91.22;93062.63;5057675;28;20297;-72
2023/12/30 00:09:11;;;;;;;13.00;11.97;;;;;;;3.91;91.73;93059.34;5043633;28;20197;-73
2023/12/30 00:11:36;;;;;;;13.23;12.03;;;;;;;4.05;91.19;93057.31;5049323;28;20226;-74
2023/12/30 00:14:02;;;;;;;15.60;12.63;;;;;;;4.00;90.83;93065.75;5042706;28;20179;-72
2023/12/30 00:16:28;;;;;;;14.50;13.30;;;;;;;3.97;91.66;93068.78;5050322;28;20194;-72
2023/12/30 00:18:54;;;;;;;13.70;12.50;;;;;;;3.82;92.34;93057.34;5061837;28;20202;-72
2023/12/30 00:21:21;;;;;;;13.43;12.43;;;;;;;3.81;92.08;93051.41;5050559;28;20221;-72
2023/12/30 00:23:47;;;;;;;12.83;11.73;;;;;;;3.95;92.10;93063.06;5046352;28;20210;-72
2023/12/30 00:26:23;;;;;;;13.13;12.27;;;;;;;3.81;91.43;93056.59;5045524;28;20191;-73
2023/12/30 00:28:49;;;;;;;13.43;12.33;;;;;;;3.82;91.89;93071.06;5046143;28;20221;-72
2023/12/30 00:31:26;;;;;;;14.80;13.50;;;;;;;3.91;92.42;93072.28;5045605;28;20214;-72
2023/12/30 00:33:52;;;;;;;13.27;12.20;;;;;;;3.61;92.86;93061.28;5035747;28;20240;-72
2023/12/30 00:36:18;;;;;;;14.93;12.47;;;;;;;3.71;92.07;93071.84;5044392;28;20208;-73
2023/12/30 00:38:43;;;;;;;12.90;11.80;;;;;;;3.60;92.37;93064.09;5050038;28;20218;-72
2023/12/30 00:41:09;;;;;;;13.37;12.33;;;;;;;3.59;93.27;93078.03;5042953;28;20197;-72
2023/12/30 00:43:36;;;;;;;14.30;12.67;;;;;;;3.62;92.65;93077.56;5046116;28;20236;-72
2023/12/30 00:46:01;;;;;;;14.23;12.77;;;;;;;3.61;92.68;93073.44;5041691;28;20197;-73
2023/12/30 00:48:26;;;;;;;12.87;11.83;;;;;;;3.58;92.43;93076.47;5075597;28;20229;-72
2023/12/30 00:50:52;;;;;;;13.57;12.50;;;;;;;3.51;92.61;93073.97;5069749;28;20265;-72
2023/12/30 00:53:17;;;;;;;13.37;12.27;;;;;;;3.42;93.80;93074.53;5071350;28;20289;-73
2023/12/30 00:55:42;;;;;;;13.30;12.00;;;;;;;3.55;93.51;93077.69;5059892;28;20186;-72
2023/12/30 00:58:08;;;;;;;14.30;13.10;;;;;;;3.66;92.15;93078.72;5049274;28;20228;-72
2023/12/30 01:00:33;;;;;;;12.90;11.77;;;;;;;3.53;92.91;93079.72;5050066;28;20178;-72
2023/12/30 01:02:58;;;;;;;13.13;12.20;;;;;;;3.55;93.01;93072.50;5043363;28;20273;-72
2023/12/30 01:05:24;;;;;;;13.20;12.30;;;;;;;3.59;93.01;93081.41;5043383;28;20193;-73
2023/12/30 01:07:49;;;;;;;13.97;12.97;;;;;;;3.57;92.55;93070.50;5047963;28;20222;-72
2023/12/30 01:10:17;;;;;;;14.47;13.37;;;;;;;3.48;93.75;93077.00;5050136;28;20269;-72
2023/12/30 01:12:42;;;;;;;13.47;12.37;;;;;;;3.37;94.09;93079.56;5043251;28;20222;-73
2023/12/30 01:15:08;;;;;;;15.80;14.50;;;;;;;3.42;93.67;93072.75;5048939;28;20182;-72
2023/12/30 01:17:33;;;;;;;14.83;13.30;;;;;;;3.60;92.77;93077.00;5048441;28;20226;-73
2023/12/30 01:19:59;;;;;;;15.37;14.07;;;;;;;3.52;93.10;93067.81;5044100;28;20231;-73
2023/12/30 01:22:24;;;;;;;14.93;13.83;;;;;;;3.40;93.59;93073.97;5052689;28;20267;-72
2023/12/30 01:24:49;;;;;;;15.50;13.93;;;;;;;3.37;94.01;93070.03;5066400;28;20193;-73
2023/12/30 01:27:15;;;;;;;15.30;13.87;;;;;;;3.42;93.48;93072.75;5062131;28;20278;-73
2023/12/30 01:29:40;;;;;;;15.40;14.20;;;;;;;3.42;93.90;93062.44;5067860;28;20210;-73
2023/12/30 01:32:06;;;;;;;16.57;14.93;;;;;;;3.39;93.80;93072.41;5056098;28;20225;-72
2023/12/30 01:34:31;;;;;;;16.70;14.90;;;;;;;3.34;94.22;93062.75;5067047;28;20177;-73
2023/12/30 01:36:56;;;;;;;16.43;14.73;;;;;;;3.35;93.87;93059.16;5068939;28;20213;-73
2023/12/30 01:39:22;;;;;;;16.83;15.17;;;;;;;3.30;94.70;93064.19;5071080;28;20183;-73
2023/12/30 01:41:49;;;;;;;15.67;14.13;;;;;;;3.38;94.35;93063.88;5071667;28;20244;-73
2023/12/30 01:44:14;;;;;;;15.50;14.10;;;;;;;3.25;93.87;93041.66;5068793;28;20189;-72
2023/12/30 01:46:40;;;;;;;16.60;14.90;;;;;;;3.35;94.52;93058.38;5063866;28;20340;-73
2023/12/30 01:49:05;;;;;;;15.30;14.10;;;;;;;3.35;94.14;93055.81;5069533;28;20190;-72
2023/12/30 01:51:31;;;;;;;16.93;15.43;;;;;;;3.11;94.96;93055.75;5067830;28;20715;-73
2023/12/30 01:53:57;;;;;;;16.23;14.73;;;;;;;3.22;95.03;93061.97;5069035;28;20185;-72
2023/12/30 01:56:25;;;;;;;19.90;16.90;;;;;;;3.37;94.42;93049.41;5068314;28;20188;-73
2023/12/30 01:58:51;;;;;;;19.97;15.87;;;;;;;3.21;94.65;93040.53;5059682;28;20198;-72
2023/12/30 02:01:18;;;;;;;18.67;16.73;;;;;;;3.23;95.04;93048.06;5056716;28;20216;-73
2023/12/30 02:03:44;;;;;;;21.77;16.03;;;;;;;3.14;95.11;93047.56;5051486;28;20206;-72
2023/12/30 02:06:09;;;;;;;17.27;14.83;;;;;;;3.13;94.88;93047.81;5055163;28;20216;-72
2023/12/30 02:08:35;;;;;;;17.40;15.67;;;;;;;3.26;95.51;93039.88;5050609;28;20210;-72
2023/12/30 02:11:02;;;;;;;15.77;14.13;;;;;;;3.17;94.64;93043.78;5064389;28;20218;-72
2023/12/30 02:13:29;;;;;;;14.87;13.60;;;;;;;3.13;95.34;93047.81;5064498;28;20263;-71
2023/12/30 02:15:54;;;;;;;14.93;13.63;;;;;;;3.10;95.04;93037.94;5062791;28;20187;-72
2023/12/30 02:18:19;;;;;;;14.73;13.43;;;;;;;3.16;95.09;93039.63;5064604;28;20277;-72
2023/12/30 02:20:45;;;;;;;17.63;15.83;;;;;;;3.08;94.71;93042.53;5069176;28;20217;-73
2023/12/30 02:23:10;;;;;;;15.57;14.10;;;;;;;3.11;95.21;93040.28;5065027;28;20217;-73
2023/12/30 02:25:35;;;;;;;14.93;13.30;;;;;;;3.25;95.35;93040.88;5065930;28;20190;-72
2023/12/30 02:28:01;;;;;;;15.70;14.27;;;;;;;3.24;94.71;93036.72;5061979;28;20222;-73
2023/12/30 02:30:26;;;;;;;16.67;14.77;;;;;;;3.14;94.95;93044.22;5068223;28;20212;-72
2023/12/30 02:32:55;;;;;;;16.60;15.20;;;;;;;3.16;94.66;93039.63;5068911;28;20213;-73
2023/12/30 02:35:23;;;;;;;15.77;14.27;;;;;;;3.17;95.13;93036.84;5065922;28;20182;-73
2023/12/30 02:37:48;;;;;;;15.57;13.73;;;;;;;2.95;95.55;93030.63;5064191;28;20224;-73
2023/12/30 02:40:14;;;;;;;15.00;13.70;;;;;;;3.07;96.11;93038.38;5062605;28;20198;-73
2023/12/30 02:42:39;;;;;;;13.93;12.83;;;;;;;3.12;96.06;93047.03;5066014;28;20284;-72
2023/12/30 02:45:05;;;;;;;12.93;11.83;;;;;;;3.21;95.31;93045.69;5058637;28;20213;-72
2023/12/30 02:47:30;;;;;;;14.70;13.53;;;;;;;3.08;95.89;93050.28;5065077;28;20229;-73
2023/12/30 02:49:56;;;;;;;15.37;13.87;;;;;;;3.14;94.73;93046.81;5061099;28;20225;-72
2023/12/30 02:52:22;;;;;;;14.30;13.23;;;;;;;3.15;95.50;93035.47;5064109;28;20244;-73
2023/12/30 02:54:47;;;;;;;13.67;12.33;;;;;;;3.12;95.61;93041.88;5055829;28;20182;-72
2023/12/30 02:57:13;;;;;;;14.20;13.20;;;;;;;2.89;95.96;93008.34;5072992;28;20233;-72
2023/12/30 02:59:38;;;;;;;14.77;13.67;;;;;;;3.19;95.61;93028.88;5061460;28;20212;-73
2023/12/30 03:02:03;;;;;;;15.23;13.80;;;;;;;3.13;95.77;93027.16;5068240;28;20267;-73
2023/12/30 03:04:29;;;;;;;14.83;13.60;;;;;;;3.19;95.38;93034.03;5063847;28;20205;-72
2023/12/30 03:06:54;;;;;;;13.90;12.60;;;;;;;3.19;95.53;93028.88;5059917;28;20284;-73
2023/12/30 03:09:19;;;;;;;14.87;13.57;;;;;;;3.41;95.67;93029.88;5070755;28;20183;-72
2023/12/30 03:11:45;;;;;;;14.87;13.37;;;;;;;3.25;95.56;93031.31;5069234;28;20217;-72
2023/12/30 03:14:10;;;;;;;15.63;14.30;;;;;;;3.11;95.71;93018.88;5071054;28;20298;-73
2023/12/30 03:16:35;;;;;;;14.43;13.27;;;;;;;2.94;96.50;93028.28;5073244;28;20185;-72
2023/12/30 03:19:01;;;;;;;15.00;13.67;;;;;;;3.03;97.23;93006.31;5052493;28;20249;-73
2023/12/30 03:21:27;;;;;;;14.90;13.70;;;;;;;3.25;96.38;93025.41;5065002;28;20245;-73
2023/12/30 03:23:52;;;;;;;16.27;14.67;;;;;;;3.07;96.07;93008.22;5042416;28;20212;-72
2023/12/30 03:26:18;;;;;;;14.30;13.13;;;;;;;3.11;96.93;93018.88;5039679;28;20186;-72
2023/12/30 03:28:43;;;;;;;13.60;12.53;;;;;;;3.03;96.58;93029.53;5070565;28;20241;-72
2023/12/30 03:31:22;;;;;;;17.07;15.57;;;;;;;2.91;99.15;93033.88;5069976;28;20212;-73
2023/12/30 03:33:48;;;;;;;16.10;14.80;;;;;;;3.11;97.30;93013.72;5055446;28;20205;-72
2023/12/30 03:36:13;;;;;;;15.33;14.03;;;;;;;3.08;96.62;93035.56;5065767;28;20177;-72
2023/12/30 03:38:39;;;;;;;16.33;14.83;;;;;;;2.87;99.27;93033.53;5068403;28;20348;-73
2023/12/30 03:41:04;;;;;;;15.87;14.30;;;;;;;3.04;98.88;93038.81;5066408;28;20188;-73
2023/12/30 03:43:29;;;;;;;14.97;13.73;;;;;;;3.10;97.65;93037.94;5062315;28;20274;-73
2023/12/30 03:45:54;;;;;;;14.70;13.30;;;;;;;3.17;97.15;93038.63;5061567;28;20197;-73
2023/12/30 03:48:20;;;;;;;14.80;13.60;;;;;;;3.07;96.71;93036.59;5067015;28;20216;-72
2023/12/30 03:50:45;;;;;;;16.07;14.37;;;;;;;3.19;96.55;93034.03;5069245;28;20217;-72
2023/12/30 03:53:10;;;;;;;20.87;16.43;;;;;;;3.09;97.26;93044.09;5053863;28;20970;-73
2023/12/30 03:55:36;;;;;;;19.80;15.77;;;;;;;2.94;99.13;93038.59;5046144;28;20222;-73
2023/12/30 03:58:02;;;;;;;16.23;14.87;;;;;;;3.16;97.75;93039.63;5050640;28;20238;-72
2023/12/30 04:00:27;;;;;;;14.30;13.03;;;;;;;3.08;97.15;93045.13;5047480;28;20205;-73
2023/12/30 04:02:53;;;;;;;20.63;13.13;;;;;;;3.06;98.20;93035.03;5050176;28;20250;-72
2023/12/30 04:05:18;;;;;;;16.80;15.40;;;;;;;3.28;97.75;93040.44;5044288;28;20189;-73
2023/12/30 04:07:43;;;;;;;16.67;14.80;;;;;;;3.18;97.35;93046.16;5059395;28;20217;-72
2023/12/30 04:10:09;;;;;;;16.50;14.87;;;;;;;3.17;96.53;93036.84;5063875;28;20220;-73
2023/12/30 04:12:35;;;;;;;16.03;14.30;;;;;;;3.09;97.21;93046.69;5065131;28;20229;-73
2023/12/30 04:15:01;;;;;;;17.47;15.70;;;;;;;3.08;96.56;93032.22;5069513;28;20182;-72
2023/12/30 04:17:26;;;;;;;23.53;19.27;;;;;;;3.14;96.73;93054.56;5067144;28;20233;-73
2023/12/30 04:19:51;;;;;;;24.67;19.50;;;;;;;3.13;97.15;93037.47;5069787;28;20229;-72
2023/12/30 04:22:17;;;;;;;22.83;18.77;;;;;;;3.18;96.53;93051.31;5067320;28;20230;-72
2023/12/30 04:24:42;;;;;;;17.50;15.30;;;;;;;2.96;96.23;93052.84;5072250;28;20196;-72
2023/12/30 04:27:07;;;;;;;16.00;14.60;;;;;;;3.14;96.44;93059.72;5070465;28;20233;-73
2023/12/30 04:29:33;;;;;;;16.63;14.87;;;;;;;3.11;96.23;93053.19;5077092;28;20197;-72
2023/12/30 04:31:58;;;;;;;15.17;13.87;;;;;;;3.00;97.08;93053.19;5065681;28;20329;-73
2023/12/30 04:34:23;;;;;;;15.50;14.20;;;;;;;2.81;97.18;93015.59;5070859;28;20204;-73
2023/12/30 04:36:49;;;;;;;15.57;13.43;;;;;;;3.08;96.73;93051.06;5067046;28;20229;-73
2023/12/30 04:39:14;;;;;;;13.73;12.47;;;;;;;2.99;97.39;93057.53;5070833;28;20207;-73
2023/12/30 04:41:40;;;;;;;15.03;13.63;;;;;;;2.62;96.98;92993.47;5074581;28;20196;-73
2023/12/30 04:44:05;;;;;;;16.47;14.17;;;;;;;3.06;96.55;93060.81;5058849;28;20245;-73
2023/12/30 04:46:31;;;;;;;15.17;13.83;;;;;;;3.06;97.16;93054.88;5069718;28;20181;-73
2023/12/30 04:48:56;;;;;;;16.13;14.73;;;;;;;3.09;96.77;93054.44;5059260;28;20181;-73
2023/12/30 04:51:21;;;;;;;16.03;14.30;;;;;;;3.17;96.33;93059.25;5064846;28;20216;-73
2023/12/30 04:53:47;;;;;;;15.33;14.03;;;;;;;3.21;96.67;93055.22;5061030;28;20194;-73
2023/12/30 04:56:16;;;;;;;15.17;13.43;;;;;;;3.01;96.85;93049.59;5059251;28;20200;-72
2023/12/30 04:58:41;;;;;;;13.00;12.00;;;;;;;3.05;96.78;93063.63;5070149;28;20221;-72
2023/12/30 05:01:08;;;;;;;16.23;14.87;;;;;;;2.98;96.84;93065.50;5066591;28;20208;-73
2023/12/30 05:03:34;;;;;;;15.27;13.87;;;;;;;2.88;97.13;93054.97;5068929;28;20275;-72
2023/12/30 05:06:00;;;;;;;16.27;13.30;;;;;;;2.84;97.42;93052.03;5077453;28;20211;-72
2023/12/30 05:08:25;;;;;;;14.63;13.47;;;;;;;2.89;97.70;93069.41;5059950;28;20214;-72
2023/12/30 05:10:50;;;;;;;14.93;13.53;;;;;;;2.94;97.53;93078.03;5072371;28;20220;-72
2023/12/30 05:13:16;;;;;;;14.57;13.13;;;;;;;2.96;97.48;93067.50;5064969;28;20225;-72
2023/12/30 05:15:42;;;;;;;13.80;12.57;;;;;;;3.00;97.31;93074.56;5058444;28;20281;-71
2023/12/30 05:18:07;;;;;;;15.10;13.43;;;;;;;2.79;97.12;93056.25;5069811;28;20255;-72
2023/12/30 05:20:32;;;;;;;12.50;11.50;;;;;;;2.96;97.19;93083.78;5063216;28;20281;-72
2023/12/30 05:23:00;;;;;;;13.37;12.47;;;;;;;2.76;97.99;93079.91;5062745;28;20218;-73
2023/12/30 05:25:25;;;;;;;12.03;11.23;;;;;;;2.86;97.64;93078.34;5064282;28;20181;-72
2023/12/30 05:27:50;;;;;;;14.17;12.90;;;;;;;2.82;97.57;93079.00;5079933;28;20247;-72
2023/12/30 05:30:16;;;;;;;12.27;11.00;;;;;;;2.90;97.59;93086.44;5059078;28;20232;-73
2023/12/30 05:32:41;;;;;;;12.67;11.67;;;;;;;2.87;97.24;93085.09;5064622;28;20225;-72
2023/12/30 05:35:07;;;;;;;13.90;12.63;;;;;;;2.85;97.50;93087.09;5060505;28;20213;-73
2023/12/30 05:37:32;;;;;;;13.80;12.43;;;;;;;2.95;97.89;93071.91;5055718;28;20233;-73
2023/12/30 05:39:57;;;;;;;15.63;14.17;;;;;;;2.95;97.75;93082.22;5046532;28;20190;-73
2023/12/30 05:42:23;;;;;;;13.13;12.13;;;;;;;2.96;97.23;93078.63;5044749;28;20222;-72
2023/12/30 05:44:48;;;;;;;15.03;13.60;;;;;;;2.83;97.57;93083.19;5041401;28;20245;-72
2023/12/30 05:47:13;;;;;;;15.23;13.87;;;;;;;2.78;97.97;93065.81;5038630;28;20229;-72
2023/12/30 05:49:41;;;;;;;14.37;12.93;;;;;;;2.95;97.23;93082.22;5043596;28;20242;-73
2023/12/30 05:52:07;;;;;;;13.53;12.37;;;;;;;2.94;97.56;93087.59;5044084;28;20243;-72
2023/12/30 05:54:33;;;;;;;12.47;11.43;;;;;;;2.78;97.39;93072.75;5068503;28;20185;-73
2023/12/30 05:57:00;;;;;;;14.43;13.33;;;;;;;2.74;97.99;93080.13;5067558;28;20240;-73
2023/12/30 05:59:26;;;;;;;14.60;13.07;;;;;;;2.77;97.85;93094.38;5069366;28;20177;-72
2023/12/30 06:01:52;;;;;;;13.00;12.10;;;;;;;2.72;98.05;93076.19;5068162;28;20220;-72
2023/12/30 06:04:18;;;;;;;14.23;13.30;;;;;;;2.86;97.85;93088.66;5061483;28;20190;-73
2023/12/30 06:06:44;;;;;;;14.10;13.20;;;;;;;2.77;97.37;93091.81;5068478;28;20236;-73
2023/12/30 06:09:10;;;;;;;13.83;12.73;;;;;;;2.76;97.55;93087.63;5062552;28;20213;-73
2023/12/30 06:11:35;;;;;;;13.97;12.97;;;;;;;2.89;97.66;93092.63;5067627;28;20217;-73
2023/12/30 06:14:01;;;;;;;12.87;11.87;;;;;;;2.83;98.07;93099.41;5067817;28;20181;-73
2023/12/30 06:16:26;;;;;;;13.10;12.23;;;;;;;3.01;97.09;93101.97;5058861;28;20412;-73
2023/12/30 06:18:51;;;;;;;12.67;11.87;;;;;;;2.87;97.56;93104.94;5048859;28;20201;-72
2023/12/30 06:21:17;;;;;;;13.70;12.67;;;;;;;2.96;97.30;93108.75;5050353;28;20206;-74
2023/12/30 06:23:43;;;;;;;14.50;13.40;;;;;;;2.92;97.46;93105.88;5048534;28;20222;-72
2023/12/30 06:26:08;;;;;;;13.90;12.80;;;;;;;2.98;97.08;93117.88;5048131;28;20204;-72
2023/12/30 06:28:33;;;;;;;13.13;12.23;;;;;;;2.95;96.13;93094.31;5041536;28;20222;-73
2023/12/30 06:30:59;;;;;;;13.63;12.50;;;;;;;2.82;96.15;93089.31;5049267;28;20225;-73
2023/12/30 06:33:25;;;;;;;13.47;12.43;;;;;;;2.94;96.39;93105.63;5037786;28;20245;-73
2023/12/30 06:35:51;;;;;;;15.20;14.00;;;;;;;2.93;96.51;93099.69;5043826;28;20300;-72
2023/12/30 06:38:17;;;;;;;14.43;13.23;;;;;;;2.85;96.50;93104.34;5067986;28;20232;-73
2023/12/30 06:40:43;;;;;;;15.13;13.93;;;;;;;2.98;96.88;93106.75;5066003;28;20204;-73
2023/12/30 06:43:08;;;;;;;14.47;13.17;;;;;;;2.93;96.83;93125.47;5061851;28;20222;-73
2023/12/30 06:45:34;;;;;;;14.27;13.07;;;;;;;3.03;96.68;93118.00;5063121;28;20208;-73
2023/12/30 06:47:59;;;;;;;14.93;13.53;;;;;;;2.98;96.29;93125.59;5058543;28;20218;-72
2023/12/30 06:50:25;;;;;;;14.83;13.53;;;;;;;3.00;96.67;93133.13;5059722;28;20277;-73
2023/12/30 06:52:50;;;;;;;16.13;14.67;;;;;;;2.97;97.21;93131.00;5058077;28;20236;-73
2023/12/30 06:55:16;;;;;;;14.17;13.17;;;;;;;3.04;96.94;93137.63;5063842;28;20170;-72
2023/12/30 06:57:41;;;;;;;13.00;11.87;;;;;;;3.14;96.66;93132.69;5069870;28;20221;-72
2023/12/30 07:00:07;;;;;;;14.07;12.77;;;;;;;3.19;96.42;93132.06;5066139;28;20197;-73
2023/12/30 07:02:33;;;;;;;13.83;12.53;;;;;;;3.28;96.76;93135.88;5057716;28;20295;-73
2023/12/30 07:04:59;;;;;;;12.37;11.30;;;;;;;3.21;96.33;93132.59;5069617;28;20208;-74
2023/12/30 07:07:24;;;;;;;13.60;12.77;;;;;;;3.10;97.01;93126.41;5071997;28;20288;-73
2023/12/30 07:09:50;;;;;;;13.13;11.97;;;;;;;3.14;96.81;93131.94;5061006;28;20182;-73
2023/12/30 07:12:16;;;;;;;15.83;14.43;;;;;;;3.34;97.22;93135.00;5071389;28;20216;-73
2023/12/30 07:14:41;;;;;;;16.47;15.00;;;;;;;3.34;96.97;93142.75;5070236;28;20197;-73
2023/12/30 07:17:06;;;;;;;17.77;15.57;;;;;;;3.35;97.16;93144.31;5066214;28;20221;-72
2023/12/30 07:19:32;;;;;;;17.23;15.77;;;;;;;3.29;97.55;93147.78;5058329;28;20182;-73
2023/12/30 07:21:57;;;;;;;17.37;15.67;;;;;;;3.38;97.28;93148.25;5067291;28;20226;-73
2023/12/30 07:24:22;;;;;;;16.33;14.80;;;;;;;3.51;97.50;93153.19;5058732;28;20246;-73
2023/12/30 07:26:47;;;;;;;18.50;15.60;;;;;;;3.64;96.52;93143.47;5059730;28;20225;-73
2023/12/30 07:29:13;;;;;;;19.87;16.93;;;;;;;3.73;95.81;93147.28;5058111;28;20278;-73
2023/12/30 07:31:39;;;;;;;17.93;15.93;;;;;;;3.88;95.43;93152.00;5067713;28;20209;-73
2023/12/30 07:34:04;;;;;;;18.83;16.13;;;;;;;4.01;95.09;93159.53;5058158;28;20220;-73
2023/12/30 07:36:31;;;;;;;18.63;15.70;;;;;;;4.03;95.28;93163.44;5058495;28;20182;-72
2023/12/30 07:38:57;;;;;;;18.03;16.20;;;;;;;4.08;94.96;93152.44;5086678;28;20178;-73
2023/12/30 07:41:22;;;;;;;18.03;16.20;;;;;;;4.28;94.57;93169.16;5071358;28;20200;-73
2023/12/30 07:43:51;;;;;;;15.80;14.30;;;;;;;4.55;93.95;93172.03;5060058;28;20173;-73
2023/12/30 07:46:16;;;;;;;17.10;15.40;;;;;;;4.34;93.56;93175.25;5071868;28;20207;-73
2023/12/30 07:48:43;;;;;;;19.07;17.17;;;;;;;4.31;94.05;93173.09;5069242;28;20205;-73
2023/12/30 07:51:08;;;;;;;17.33;15.53;;;;;;;4.52;93.01;93168.13;5070983;28;20201;-73
2023/12/30 07:53:33;;;;;;;19.13;16.33;;;;;;;4.24;94.01;93168.06;5042307;28;20276;-73
2023/12/30 07:55:59;;;;;;;18.57;16.67;;;;;;;4.49;93.37;93173.75;5044877;28;20179;-73
2023/12/30 07:58:25;;;;;;;21.17;17.70;;;;;;;4.58;93.74;93177.56;5043906;28;20223;-73
2023/12/30 08:00:50;;;;;;;21.83;18.43;;;;;;;4.66;93.01;93177.22;5050674;28;20182;-73
2023/12/30 08:03:15;;;;;;;24.03;19.13;;;;;;;4.79;92.50;93179.50;5044510;28;20217;-73
2023/12/30 08:05:41;;;;;;;23.97;18.30;;;;;;;4.74;92.78;93171.69;5044595;28;20242;-73
2023/12/30 08:08:08;;;;;;;22.03;19.40;;;;;;;4.92;92.02;93174.09;5051274;28;20222;-73
2023/12/30 08:10:34;;;;;;;23.60;19.70;;;;;;;4.90;92.12;93181.28;5069475;28;20726;-73
2023/12/30 08:12:59;;;;;;;24.07;20.33;;;;;;;5.00;91.83;93164.41;5068648;28;20225;-73
2023/12/30 08:15:24;;;;;;;32.63;25.53;;;;;;;5.18;89.60;93164.22;5070104;28;20192;-73
2023/12/30 08:17:50;;;;;;;36.63;25.70;;;;;;;5.15;89.18;93177.59;5069235;28;20291;-73
2023/12/30 08:20:15;;;;;;;40.30;26.43;;;;;;;4.81;91.22;93171.53;5070533;28;20320;-73
2023/12/30 08:22:41;;;;;;;34.60;26.10;;;;;;;4.60;92.48;93183.28;5061722;28;20222;-73
2023/12/30 08:25:10;;;;;;;29.87;22.70;;;;;;;5.02;90.94;93203.75;5063361;28;20208;-73
2023/12/30 08:27:36;;;;;;;25.93;22.43;;;;;;;5.14;89.61;93191.56;5068097;28;20225;-72
2023/12/30 08:30:02;;;;;;;25.43;20.40;;;;;;;5.27;88.97;93205.03;5062338;28;20181;-73
2023/12/30 08:32:28;;;;;;;31.23;21.70;;;;;;;5.21;89.56;93208.53;5059912;28;20226;-73
2023/12/30 08:34:54;;;;;;;25.27;21.93;;;;;;;5.36;89.11;93205.41;5066369;28;20221;-73
2023/12/30 08:37:19;;;;;;;33.57;22.80;;;;;;;5.38;88.64;93218.91;5070313;28;20217;-73
2023/12/30 08:39:45;;;;;;;27.07;20.30;;;;;;;5.52;88.22;93209.84;5068963;28;20200;-73
2023/12/30 08:42:11;;;;;;;29.00;22.33;;;;;;;5.53;88.21;93206.22;5061416;28;20750;-73
2023/12/30 08:44:43;;;;;;;26.00;21.87;;;;;;;5.61;88.43;93206.66;5046622;28;20236;-73
2023/12/30 08:47:09;;;;;;;29.07;22.73;;;;;;;5.44;88.51;93187.72;5035548;28;20219;-73
2023/12/30 08:49:35;;;;;;;24.60;21.07;;;;;;;5.75;87.73;93197.56;5042291;28;20201;-73
2023/12/30 08:52:00;;;;;;;36.40;23.23;;;;;;;5.61;88.01;93205.84;5048719;28;20222;-73
2023/12/30 08:54:25;;;;;;;33.57;25.33;;;;;;;5.57;88.52;93190.00;5058587;28;20197;-73
2023/12/30 08:56:53;;;;;;;33.13;26.50;;;;;;;5.58;89.19;93193.38;5056557;28;20229;-73
2023/12/30 08:59:19;;;;;;;38.27;26.47;;;;;;;5.45;90.08;93193.69;5043704;28;20189;-73
2023/12/30 09:01:45;;;;;;;35.17;27.57;;;;;;;5.69;89.32;93197.72;5041245;28;20282;-72
2023/12/30 09:04:10;;;;;;;36.30;27.43;;;;;;;5.89;87.67;93185.91;5045766;28;20182;-73
2023/12/30 09:06:36;;;;;;;36.67;27.13;;;;;;;5.80;88.42;93191.69;5043978;28;20187;-74
2023/12/30 09:09:04;;;;;;;36.27;28.47;;;;;;;5.88;88.44;93179.13;5042951;28;20232;-73
2023/12/30 09:11:30;;;;;;;37.37;26.47;;;;;;;6.10;87.16;93187.78;5048691;28;20213;-74
2023/12/30 09:13:55;;;;;;;40.57;27.50;;;;;;;6.21;86.59;93179.13;5048324;28;20197;-73
2023/12/30 09:16:20;;;;;;;36.50;27.37;;;;;;;5.60;88.84;93174.03;5035826;28;20205;-72
2023/12/30 09:18:46;;;;;;;35.87;28.57;;;;;;;5.83;88.81;93173.09;5046356;28;20910;-74
2023/12/30 09:21:12;;;;;;;35.73;28.03;;;;;;;6.13;87.13;93176.94;5044338;28;20217;-72
2023/12/30 09:23:38;;;;;;;40.13;30.63;;;;;;;6.09;87.61;93175.06;5041335;28;20222;-74
2023/12/30 09:26:03;;;;;;;40.57;28.23;;;;;;;6.17;87.74;93166.88;5046852;28;20196;-73
2023/12/30 09:28:29;;;;;;;39.87;28.57;;;;;;;6.45;86.06;93169.34;5048643;28;20248;-73
2023/12/30 09:30:54;;;;;;;41.50;27.97;;;;;;;6.58;85.66;93174.97;5047637;28;20214;-73
2023/12/30 09:33:19;;;;;;;38.03;27.23;;;;;;;6.38;86.37;93163.56;5061125;28;20213;-73
2023/12/30 09:35:45;;;;;;;39.20;29.00;;;;;;;6.14;87.58;93167.34;5065287;28;20188;-73
2023/12/30 09:38:10;;;;;;;40.23;29.53;;;;;;;6.14;88.00;93154.41;5049360;28;20226;-73
2023/12/30 09:40:36;;;;;;;40.00;28.23;;;;;;;6.32;87.38;93149.72;5045093;28;20194;-73
2023/12/30 09:43:04;;;;;;;39.77;28.00;;;;;;;6.57;86.27;93157.03;5038450;28;20214;-73
2023/12/30 09:45:34;;;;;;;38.23;30.93;;;;;;;6.65;85.46;93154.03;5043051;28;20183;-73
2023/12/30 09:48:02;;;;;;;36.87;29.70;;;;;;;6.75;85.07;93151.56;5045688;28;20218;-73
2023/12/30 09:50:29;;;;;;;43.77;30.37;;;;;;;6.84;84.55;93147.53;5033917;28;20221;-73
2023/12/30 09:52:54;;;;;;;44.23;29.17;;;;;;;6.70;84.83;93124.78;5044902;28;20226;-73
2023/12/30 09:55:19;;;;;;;48.10;29.90;;;;;;;6.47;85.63;93110.25;5038395;28;20214;-73
2023/12/30 09:57:45;;;;;;;41.83;28.47;;;;;;;7.04;83.76;93139.97;5057872;28;20217;-72
2023/12/30 10:00:15;;;;;;;43.47;30.87;;;;;;;6.97;83.98;93138.59;5062642;28;20170;-73
2023/12/30 10:02:41;;;;;;;40.30;29.50;;;;;;;7.19;83.48;93149.72;5054567;28;20240;-73
2023/12/30 10:05:07;;;;;;;41.53;27.80;;;;;;;7.37;82.58;93147.56;5065848;28;20193;-73
2023/12/30 10:07:34;;;;;;;33.77;27.03;;;;;;;7.43;82.21;93146.59;5072653;28;20221;-73
2023/12/30 10:09:59;;;;;;;40.23;28.80;;;;;;;7.33;82.56;93156.88;5069218;28;20202;-73
2023/12/30 10:12:25;;;;;;;43.33;28.10;;;;;;;7.01;83.82;93148.22;5067303;28;20236;-72
2023/12/30 10:14:50;;;;;;;40.20;26.30;;;;;;;7.45;82.81;93147.13;5072783;28;20209;-72
2023/12/30 10:17:17;;;;;;;41.77;27.90;;;;;;;7.59;81.46;93137.91;5071809;28;20235;-73
2023/12/30 10:19:42;;;;;;;37.73;27.57;;;;;;;7.61;81.56;93141.03;5058441;28;20182;-73
2023/12/30 10:22:08;;;;;;;36.37;28.17;;;;;;;7.50;81.80;93136.78;5067079;28;20290;-73
2023/12/30 10:24:34;;;;;;;37.33;25.23;;;;;;;7.60;81.47;93110.88;5067442;28;20185;-73
2023/12/30 10:27:04;;;;;;;35.33;27.63;;;;;;;7.75;80.79;93133.63;5064321;28;20289;-73
2023/12/30 10:29:31;;;;;;;35.53;26.37;;;;;;;7.71;80.38;93112.53;5062979;28;20214;-74
2023/12/30 10:32:01;;;;;;;35.40;28.03;;;;;;;7.75;81.01;93134.38;5062839;28;20248;-73
2023/12/30 10:34:27;;;;;;;35.43;26.83;;;;;;;7.54;81.65;93131.88;5046620;28;20246;-73
2023/12/30 10:36:53;;;;;;;44.63;27.20;;;;;;;7.42;82.80;93134.66;5048413;28;20214;-74
2023/12/30 10:39:22;;;;;;;36.17;25.87;;;;;;;7.74;81.33;93130.22;5042091;28;20213;-74
2023/12/30 10:41:48;;;;;;;40.77;28.97;;;;;;;7.73;80.93;93107.09;5036178;28;20245;-73
2023/12/30 10:44:13;;;;;;;36.80;26.60;;;;;;;7.80;81.33;93120.63;5040529;28;20182;-73
2023/12/30 10:46:40;;;;;;;46.63;27.90;;;;;;;7.50;82.11;93113.38;5052416;28;20170;-73
2023/12/30 10:49:08;;;;;;;35.37;27.87;;;;;;;7.74;81.37;93111.25;5042008;28;20221;-73
2023/12/30 10:51:34;;;;;;;39.10;27.63;;;;;;;7.87;81.00;93119.44;5043769;28;20286;-72
2023/12/30 10:54:04;;;;;;;38.77;27.40;;;;;;;8.22;79.70;93123.28;5037987;28;20194;-71
2023/12/30 10:56:39;;;;;;;38.67;27.30;;;;;;;8.37;78.41;93118.19;5045269;28;20194;-70
2023/12/30 10:59:05;;;;;;;37.07;27.13;;;;;;;8.42;77.76;93110.44;5063593;28;20241;-71
2023/12/30 11:01:33;;;;;;;37.07;27.23;;;;;;;8.30;78.29;93104.63;5082764;28;20184;-71
2023/12/30 11:04:03;;;;;;;50.97;29.37;;;;;;;8.20;78.98;93111.31;5068607;28;20197;-73
2023/12/30 11:06:38;;;;;;;38.47;25.97;;;;;;;8.30;78.79;93104.63;5067972;28;20181;-73
2023/12/30 11:09:14;;;;;;;39.40;29.13;;;;;;;8.18;79.29;93108.19;5070692;28;20181;-73
2023/12/30 11:11:53;;;;;;;39.90;28.03;;;;;;;7.97;79.70;93075.28;5070602;28;20235;-74
2023/12/30 11:14:22;;;;;;;42.63;29.03;;;;;;;8.19;79.14;93103.75;5071418;28;20178;-74
2023/12/30 11:16:51;;;;;;;43.73;30.20;;;;;;;8.28;79.33;93083.28;5068086;28;20230;-74
2023/12/30 11:19:35;;;;;;;39.77;30.33;;;;;;;8.20;79.11;93090.50;5064979;28;20181;-73